Time;durP1;ratioP1;P1;durP2;ratioP2;P2;SDS_P1;SDS_P2;PMS_P1;PMS_P2;Temp;Humidity;BMP_temperature;BMP_pressure;BME280_temperature;BME280_humidity;BME280_pressure;Samples;Min_cycle;Max_cycle;Signal;HPM_P1;HPM_P2
2022/01/13 00:02:03;;;;;;;119.68;19.33;;;5.20;99.90;;;;;;5070851;28;20120;-72
2022/01/13 00:04:32;;;;;;;76.43;17.67;;;5.20;99.90;;;;;;5071893;28;20059;-72
2022/01/13 00:06:58;;;;;;;95.75;17.20;;;5.20;99.90;;;;;;5071492;28;20873;-73
2022/01/13 00:09:23;;;;;;;69.18;16.92;;;5.20;99.90;;;;;;5068803;28;20409;-72
2022/01/13 00:11:50;;;;;;;75.97;16.33;;;5.10;99.90;;;;;;5068468;28;20052;-72
2022/01/13 00:17:06;;;;;;;112.38;18.80;;;5.10;99.90;;;;;;5070379;28;20051;-72
2022/01/13 00:19:35;;;;;;;99.15;18.25;;;5.10;99.90;;;;;;5069284;28;20119;-71
2022/01/13 00:22:19;;;;;;;92.20;18.65;;;5.10;99.90;;;;;;5070220;28;20520;-71
2022/01/13 00:24:48;;;;;;;83.97;17.88;;;5.10;99.90;;;;;;5072048;28;20115;-70
2022/01/13 00:27:15;;;;;;;76.18;16.70;;;5.10;99.90;;;;;;5070731;28;20083;-71
2022/01/13 00:29:43;;;;;;;77.30;17.33;;;5.10;99.90;;;;;;5070284;28;20498;-71
2022/01/13 00:32:12;;;;;;;68.88;16.15;;;5.10;99.90;;;;;;5070732;28;20076;-72
2022/01/13 00:34:38;;;;;;;76.10;16.48;;;5.10;99.90;;;;;;5070966;28;20497;-72
2022/01/13 00:37:04;;;;;;;95.00;16.85;;;5.10;99.90;;;;;;5068747;28;20553;-73
2022/01/13 00:39:30;;;;;;;108.07;17.73;;;5.10;99.90;;;;;;5070124;28;20129;-73
2022/01/13 00:41:55;;;;;;;117.90;18.90;;;5.10;99.90;;;;;;5070700;28;20499;-73
2022/01/13 00:44:21;;;;;;;91.88;16.35;;;5.10;99.90;;;;;;5070934;28;20078;-73
2022/01/13 00:47:00;;;;;;;68.57;15.43;;;5.10;99.90;;;;;;5089703;28;20516;-73
2022/01/13 00:49:27;;;;;;;65.20;14.82;;;5.10;99.90;;;;;;5091541;28;20040;-72
2022/01/13 00:51:53;;;;;;;92.55;16.45;;;5.10;99.90;;;;;;5073084;28;20548;-73
2022/01/13 00:54:18;;;;;;;107.15;17.88;;;5.10;99.90;;;;;;5073154;28;20040;-72
2022/01/13 00:56:44;;;;;;;75.93;15.63;;;5.10;99.90;;;;;;5073752;28;20067;-72
2022/01/13 00:59:13;;;;;;;65.00;16.33;;;5.10;99.90;;;;;;5073265;28;20079;-72
2022/01/13 01:01:51;;;;;;;78.50;18.00;;;5.10;99.90;;;;;;5073352;28;20044;-73
2022/01/13 01:04:18;;;;;;;80.47;18.55;;;5.10;99.90;;;;;;5072496;28;20079;-72
2022/01/13 01:06:44;;;;;;;104.28;19.75;;;5.10;99.90;;;;;;5072667;28;20439;-72
2022/01/13 01:09:15;;;;;;;139.10;20.17;;;5.10;99.90;;;;;;5073050;28;20040;-72
2022/01/13 01:11:42;;;;;;;91.50;18.73;;;5.10;99.90;;;;;;5072160;28;20044;-73
2022/01/13 01:14:08;;;;;;;145.27;21.73;;;5.10;99.90;;;;;;5056797;28;20047;-73
2022/01/13 01:16:36;;;;;;;92.22;19.30;;;5.10;99.90;;;;;;5072709;28;20392;-71
2022/01/13 01:19:06;;;;;;;67.90;19.00;;;5.10;99.90;;;;;;5072737;28;20047;-72
2022/01/13 01:26:43;;;;;;;67.93;16.10;;;5.10;99.90;;;;;;5072320;28;20072;-72
2022/01/13 01:31:47;;;;;;;55.92;14.85;;;5.20;99.90;;;;;;5053089;28;20098;-73
2022/01/13 01:34:37;;;;;;;41.90;13.48;;;5.10;99.90;;;;;;5057767;28;20032;-73
2022/01/13 01:37:06;;;;;;;38.83;11.35;;;5.10;99.90;;;;;;5058665;28;20044;-72
2022/01/13 01:39:32;;;;;;;51.97;13.25;;;5.10;99.90;;;;;;5071990;28;20511;-73
2022/01/13 01:41:57;;;;;;;43.45;12.68;;;5.10;99.90;;;;;;5072987;28;20036;-71
2022/01/13 01:44:33;;;;;;;51.03;13.60;;;5.10;99.90;;;;;;5072842;28;20101;-72
2022/01/13 01:47:00;;;;;;;44.88;13.63;;;5.10;99.90;;;;;;5072158;28;20051;-72
2022/01/13 01:49:27;;;;;;;37.55;13.02;;;5.10;99.90;;;;;;5072160;28;20221;-71
2022/01/13 01:51:55;;;;;;;35.17;12.20;;;5.10;99.90;;;;;;5069541;28;20493;-71
2022/01/13 01:54:21;;;;;;;42.80;12.52;;;5.10;99.90;;;;;;5079857;28;20064;-72
2022/01/13 01:56:47;;;;;;;32.67;10.70;;;5.10;99.90;;;;;;5090994;28;20051;-71
2022/01/13 01:59:18;;;;;;;56.80;12.35;;;5.10;99.90;;;;;;5072531;28;20070;-72
2022/01/13 02:01:45;;;;;;;37.70;12.05;;;5.10;99.90;;;;;;5069051;28;20049;-72
2022/01/13 02:04:11;;;;;;;52.47;12.93;;;5.10;99.90;;;;;;5061152;28;20048;-72
2022/01/13 02:06:38;;;;;;;43.45;12.85;;;5.10;99.90;;;;;;5072729;28;20048;-72
2022/01/13 02:09:10;;;;;;;43.30;14.23;;;5.10;99.90;;;;;;5072371;28;20119;-72
2022/01/13 02:11:43;;;;;;;64.60;14.88;;;5.10;99.90;;;;;;5072301;28;20496;-72
2022/01/13 02:14:31;;;;;;;55.25;14.00;;;5.10;99.90;;;;;;5072267;28;20055;-72
2022/01/13 02:17:04;;;;;;;43.78;14.32;;;5.10;99.90;;;;;;5072715;28;20048;-72
2022/01/13 02:19:31;;;;;;;51.13;13.35;;;5.10;99.90;;;;;;5071918;28;20433;-73
2022/01/13 02:21:57;;;;;;;65.60;15.10;;;5.10;99.90;;;;;;5071353;28;20193;-72
2022/01/13 02:24:26;;;;;;;49.67;15.98;;;5.10;99.90;;;;;;5090351;28;20220;-73
2022/01/13 02:26:52;;;;;;;40.30;13.27;;;5.10;99.90;;;;;;5072576;28;20543;-74
2022/01/13 02:29:18;;;;;;;51.45;14.80;;;5.10;99.90;;;;;;5071696;28;20126;-73
2022/01/13 02:31:44;;;;;;;42.28;14.30;;;5.10;99.90;;;;;;5072080;28;20055;-73
2022/01/13 02:34:09;;;;;;;74.90;16.83;;;5.10;99.90;;;;;;5072380;28;20074;-72
2022/01/13 02:36:37;;;;;;;49.70;13.50;;;5.10;99.90;;;;;;5071821;28;20040;-72
2022/01/13 02:39:04;;;;;;;58.40;13.88;;;5.10;99.90;;;;;;5072267;28;20101;-73
2022/01/13 02:41:30;;;;;;;45.58;12.98;;;5.10;99.90;;;;;;5090329;28;20503;-72
2022/01/13 02:43:58;;;;;;;33.10;11.32;;;5.10;99.90;;;;;;5071541;28;20086;-72
2022/01/13 02:49:08;;;;;;;40.10;12.25;;;5.10;99.90;;;;;;5090116;28;20058;-72
2022/01/13 02:51:35;;;;;;;49.67;12.27;;;5.10;99.90;;;;;;5071455;28;20077;-72
2022/01/13 02:54:01;;;;;;;43.22;13.23;;;5.10;99.90;;;;;;5090204;28;20606;-72
2022/01/13 02:56:27;;;;;;;44.78;13.30;;;5.00;99.90;;;;;;5071341;28;20059;-72
2022/01/13 02:58:53;;;;;;;41.83;12.80;;;5.10;99.90;;;;;;5090062;28;20419;-72
2022/01/13 03:01:19;;;;;;;87.85;15.60;;;5.10;99.90;;;;;;5075003;28;20040;-72
2022/01/13 03:03:45;;;;;;;57.58;13.65;;;5.10;99.90;;;;;;5074727;28;20079;-72
2022/01/13 03:06:14;;;;;;;43.00;12.85;;;5.10;99.90;;;;;;5075678;28;20055;-72
2022/01/13 03:08:47;;;;;;;64.32;12.57;;;5.00;99.90;;;;;;5075260;28;20071;-73
2022/01/13 03:11:16;;;;;;;51.40;12.95;;;5.00;99.90;;;;;;5093285;28;20212;-72
2022/01/13 03:13:42;;;;;;;46.22;11.63;;;5.00;99.90;;;;;;5075292;28;20052;-73
2022/01/13 03:16:09;;;;;;;41.70;12.60;;;5.00;99.90;;;;;;5075704;28;20055;-73
2022/01/13 03:18:35;;;;;;;52.08;12.32;;;5.00;99.90;;;;;;5074586;28;20037;-73
2022/01/13 03:21:05;;;;;;;39.75;12.25;;;5.10;99.90;;;;;;5093988;28;20070;-70
2022/01/13 03:23:35;;;;;;;56.40;13.32;;;5.00;99.90;;;;;;5093530;28;20054;-73
2022/01/13 03:26:01;;;;;;;81.15;16.08;;;5.00;99.90;;;;;;5092880;28;20377;-73
2022/01/13 03:28:31;;;;;;;40.85;12.70;;;5.10;99.90;;;;;;5084940;28;20097;-72
2022/01/13 03:31:01;;;;;;;59.00;14.10;;;5.00;99.90;;;;;;5075251;28;20097;-73
2022/01/13 03:33:27;;;;;;;72.75;14.18;;;5.00;99.90;;;;;;5074086;28;20044;-72
2022/01/13 03:35:54;;;;;;;54.60;13.43;;;5.00;99.90;;;;;;5074883;28;20114;-73
2022/01/13 03:38:20;;;;;;;65.30;14.05;;;5.00;99.90;;;;;;5075013;28;20047;-73
2022/01/13 03:40:46;;;;;;;86.07;15.57;;;5.00;99.90;;;;;;5074127;28;20082;-73
2022/01/13 03:43:11;;;;;;;47.10;12.80;;;5.00;99.90;;;;;;5075243;28;20080;-73
2022/01/13 03:45:37;;;;;;;72.72;13.73;;;5.00;99.90;;;;;;5074155;28;20056;-72
2022/01/13 03:48:03;;;;;;;53.10;14.23;;;5.00;99.90;;;;;;5091287;28;20141;-73
2022/01/13 03:50:29;;;;;;;54.85;13.50;;;5.00;99.90;;;;;;5074760;28;20051;-73
2022/01/13 03:53:01;;;;;;;51.10;13.55;;;5.00;99.90;;;;;;5074162;28;20101;-71
2022/01/13 03:55:38;;;;;;;57.65;14.40;;;5.00;99.90;;;;;;5092936;28;20502;-71
2022/01/13 03:58:29;;;;;;;83.68;17.10;;;5.00;99.90;;;;;;5074615;28;20480;-72
2022/01/13 04:01:22;;;;;;;74.90;16.35;;;5.00;99.90;;;;;;5073747;28;20040;-72
2022/01/13 04:03:48;;;;;;;96.35;17.60;;;5.10;99.90;;;;;;5090621;28;20044;-72
2022/01/13 04:06:14;;;;;;;69.95;17.25;;;5.00;99.90;;;;;;5090475;28;20059;-72
2022/01/13 04:08:40;;;;;;;74.88;17.42;;;5.10;99.90;;;;;;5073756;28;20040;-72
2022/01/13 04:11:05;;;;;;;55.35;15.40;;;5.10;99.90;;;;;;5074306;28;20119;-72
2022/01/13 04:13:45;;;;;;;41.28;14.82;;;5.10;99.90;;;;;;5074564;28;20052;-72
2022/01/13 04:16:15;;;;;;;55.15;15.70;;;5.10;99.90;;;;;;5073938;28;20525;-71
2022/01/13 04:18:41;;;;;;;73.50;16.85;;;5.10;99.90;;;;;;5076872;28;20044;-72
2022/01/13 04:21:07;;;;;;;73.78;15.85;;;5.10;99.90;;;;;;5073923;28;20502;-72
2022/01/13 04:23:34;;;;;;;98.97;17.63;;;5.00;99.90;;;;;;5071604;28;20400;-72
2022/01/13 04:26:00;;;;;;;65.40;14.05;;;5.10;99.90;;;;;;5055400;28;20049;-72
2022/01/13 04:28:28;;;;;;;59.30;14.25;;;5.00;99.90;;;;;;5090959;28;20101;-72
2022/01/13 04:31:00;;;;;;;61.22;15.25;;;5.00;99.90;;;;;;5073966;28;20048;-69
2022/01/13 04:33:36;;;;;;;46.95;14.43;;;5.00;99.90;;;;;;5092046;28;20597;-71
2022/01/13 04:36:04;;;;;;;46.10;14.25;;;5.10;99.90;;;;;;5073035;28;20074;-72
2022/01/13 04:38:30;;;;;;;73.40;15.18;;;5.10;99.90;;;;;;5072855;28;20561;-72
2022/01/13 04:40:57;;;;;;;59.60;15.30;;;5.10;99.90;;;;;;5073668;28;20044;-71
2022/01/13 04:43:25;;;;;;;66.05;14.50;;;5.10;99.90;;;;;;5072785;28;20123;-72
2022/01/13 04:45:51;;;;;;;46.95;14.45;;;5.10;99.90;;;;;;5073937;28;20166;-72
2022/01/13 04:48:17;;;;;;;57.25;15.13;;;5.00;99.90;;;;;;5091203;28;20389;-72
2022/01/13 04:50:43;;;;;;;56.35;14.73;;;5.00;99.90;;;;;;5091009;28;20055;-71
2022/01/13 04:53:09;;;;;;;72.70;16.38;;;5.00;99.90;;;;;;5073182;28;20164;-72
2022/01/13 04:55:37;;;;;;;47.83;12.35;;;5.00;99.90;;;;;;5074145;28;20500;-72
2022/01/13 04:58:04;;;;;;;49.35;12.82;;;5.00;99.90;;;;;;5072347;28;20044;-71
2022/01/13 05:00:31;;;;;;;56.58;12.75;;;5.00;99.90;;;;;;5090422;28;20404;-73
2022/01/13 05:02:57;;;;;;;59.88;14.02;;;5.00;99.90;;;;;;5072253;28;20060;-73
2022/01/13 05:05:24;;;;;;;85.45;15.73;;;5.00;99.90;;;;;;5056912;28;20210;-72
2022/01/13 05:07:50;;;;;;;70.60;15.88;;;5.00;99.90;;;;;;5072930;28;20048;-73
2022/01/13 05:10:16;;;;;;;66.95;15.60;;;5.00;99.90;;;;;;5072606;28;20532;-73
2022/01/13 05:12:44;;;;;;;54.58;14.75;;;5.00;99.90;;;;;;5072972;28;20044;-73
2022/01/13 05:15:16;;;;;;;70.70;17.00;;;5.00;99.90;;;;;;5073503;28;20043;-72
2022/01/13 05:20:20;;;;;;;57.17;15.23;;;5.00;99.90;;;;;;5091299;28;20047;-72
2022/01/13 05:22:47;;;;;;;52.30;14.45;;;5.00;99.90;;;;;;5072192;28;20500;-72
2022/01/13 05:25:13;;;;;;;55.40;13.55;;;5.00;99.90;;;;;;5073037;28;20058;-73
2022/01/13 05:27:39;;;;;;;47.13;14.05;;;5.00;99.90;;;;;;5072807;28;20044;-72
2022/01/13 05:30:06;;;;;;;73.10;16.02;;;5.00;99.90;;;;;;5091461;28;20051;-72
2022/01/13 05:32:32;;;;;;;50.20;13.43;;;5.00;99.90;;;;;;5090160;28;20077;-72
2022/01/13 05:34:57;;;;;;;81.03;14.85;;;5.00;99.90;;;;;;5072834;28;20483;-72
2022/01/13 05:37:23;;;;;;;85.63;16.45;;;5.00;99.90;;;;;;5072917;28;20449;-72
2022/01/13 05:39:49;;;;;;;131.20;19.10;;;5.00;99.90;;;;;;5090111;28;20105;-73
2022/01/13 05:42:14;;;;;;;117.15;18.67;;;5.00;99.90;;;;;;5073101;28;20451;-73
2022/01/13 05:44:40;;;;;;;127.13;19.90;;;5.00;99.90;;;;;;5090653;28;20126;-72
2022/01/13 05:47:07;;;;;;;102.10;17.95;;;5.00;99.90;;;;;;5072678;28;20048;-72
2022/01/13 05:49:33;;;;;;;114.38;19.13;;;4.90;99.90;;;;;;5072639;28;20127;-73
2022/01/13 05:51:59;;;;;;;88.82;17.52;;;5.00;99.90;;;;;;5072581;28;20139;-73
2022/01/13 05:54:24;;;;;;;98.63;17.55;;;5.00;99.90;;;;;;5072022;28;20078;-72
2022/01/13 05:56:50;;;;;;;106.50;17.10;;;4.90;99.90;;;;;;5072568;28;20125;-73
2022/01/13 05:59:16;;;;;;;73.70;16.23;;;5.00;99.90;;;;;;5074592;28;20047;-71
2022/01/13 06:01:42;;;;;;;77.32;17.55;;;5.00;99.90;;;;;;5068191;28;20404;-71
2022/01/13 06:04:08;;;;;;;106.50;18.02;;;4.90;99.90;;;;;;5072857;28;20044;-72
2022/01/13 06:06:33;;;;;;;87.00;16.70;;;4.90;99.90;;;;;;5072084;28;20066;-72
2022/01/13 06:08:59;;;;;;;71.90;16.45;;;4.90;99.90;;;;;;5072279;28;20063;-73
2022/01/13 06:11:27;;;;;;;71.70;16.35;;;5.00;99.90;;;;;;5072641;28;20048;-73
2022/01/13 06:13:52;;;;;;;69.85;16.83;;;4.90;99.90;;;;;;5071714;28;20051;-73
2022/01/13 06:16:18;;;;;;;91.40;17.75;;;4.90;99.90;;;;;;5072152;28;20044;-73
2022/01/13 06:18:43;;;;;;;72.65;17.17;;;5.00;99.90;;;;;;5072071;28;20036;-73
2022/01/13 06:21:09;;;;;;;86.00;17.55;;;4.90;99.90;;;;;;5072888;28;20079;-72
2022/01/13 06:23:35;;;;;;;87.97;17.20;;;4.90;99.90;;;;;;5072288;28;20028;-70
2022/01/13 06:26:02;;;;;;;70.95;17.38;;;5.00;99.90;;;;;;5073162;28;20546;-72
2022/01/13 06:28:27;;;;;;;88.10;16.90;;;4.90;99.90;;;;;;5071287;28;20047;-72
2022/01/13 06:30:53;;;;;;;66.43;17.55;;;4.90;99.90;;;;;;5072376;28;20044;-69
2022/01/13 06:33:19;;;;;;;77.07;17.80;;;4.90;99.90;;;;;;5071913;28;20377;-71
2022/01/13 06:35:46;;;;;;;93.18;18.05;;;4.90;99.90;;;;;;5092304;28;20043;-72
2022/01/13 06:38:11;;;;;;;66.32;16.50;;;4.90;99.90;;;;;;5094550;28;20089;-72
2022/01/13 06:40:37;;;;;;;57.65;17.00;;;4.90;99.90;;;;;;5093869;28;20031;-71
2022/01/13 06:43:03;;;;;;;58.35;16.17;;;4.90;99.90;;;;;;5093140;28;20055;-72
2022/01/13 06:45:28;;;;;;;94.57;18.20;;;4.90;99.90;;;;;;5076042;28;20095;-74
2022/01/13 06:47:54;;;;;;;123.75;19.27;;;4.90;99.90;;;;;;5075882;28;20048;-72
2022/01/13 06:50:20;;;;;;;99.32;17.98;;;4.90;99.90;;;;;;5075325;28;20040;-72
2022/01/13 06:52:47;;;;;;;107.22;18.15;;;4.90;99.90;;;;;;5075418;28;20054;-72
2022/01/13 06:55:13;;;;;;;90.85;18.45;;;4.90;99.90;;;;;;5094395;28;20055;-72
2022/01/13 06:57:39;;;;;;;79.30;18.20;;;4.90;99.90;;;;;;5093416;28;20047;-72
2022/01/13 07:00:06;;;;;;;85.47;17.80;;;4.90;99.90;;;;;;5076037;28;20119;-73
2022/01/13 07:02:33;;;;;;;84.68;15.95;;;4.90;99.90;;;;;;5074851;28;20054;-72
2022/01/13 07:04:59;;;;;;;93.93;18.15;;;4.90;99.90;;;;;;5075717;28;20495;-72
2022/01/13 07:07:25;;;;;;;95.25;18.30;;;4.90;99.90;;;;;;5093784;28;20078;-72
2022/01/13 07:09:51;;;;;;;115.93;19.60;;;4.90;99.90;;;;;;5093274;28;20040;-71
2022/01/13 07:12:16;;;;;;;73.32;18.48;;;4.90;99.90;;;;;;5075148;28;20389;-72
2022/01/13 07:14:42;;;;;;;59.90;16.38;;;4.90;99.90;;;;;;5075319;28;20059;-72
2022/01/13 07:17:09;;;;;;;104.82;19.23;;;4.90;99.90;;;;;;5074645;28;20040;-71
2022/01/13 07:19:39;;;;;;;70.88;16.73;;;4.90;99.90;;;;;;5093984;28;20036;-72
2022/01/13 07:22:06;;;;;;;108.72;18.67;;;4.90;99.90;;;;;;5093877;28;20066;-71
2022/01/13 07:24:31;;;;;;;69.90;16.90;;;4.90;99.90;;;;;;5074868;28;20063;-72
2022/01/13 07:26:57;;;;;;;81.82;18.95;;;4.90;99.90;;;;;;5075082;28;20404;-71
2022/01/13 07:29:22;;;;;;;75.43;16.90;;;4.90;99.90;;;;;;5075007;28;20048;-71
2022/01/13 07:31:48;;;;;;;115.50;19.98;;;4.90;99.90;;;;;;5074429;28;20052;-71
2022/01/13 07:34:14;;;;;;;70.97;17.27;;;4.90;99.90;;;;;;5075145;28;20046;-71
2022/01/13 07:36:40;;;;;;;70.38;18.23;;;5.00;99.90;;;;;;5074905;28;20048;-70
2022/01/13 07:39:07;;;;;;;77.40;18.52;;;5.00;99.90;;;;;;5074431;28;20059;-69
2022/01/13 07:41:34;;;;;;;61.22;17.02;;;5.00;99.90;;;;;;5092254;28;20485;-70
2022/01/13 07:44:00;;;;;;;91.95;20.25;;;5.00;99.90;;;;;;5093144;28;20039;-70
2022/01/13 07:46:26;;;;;;;70.38;17.63;;;5.00;99.90;;;;;;5073625;28;20047;-71
2022/01/13 07:48:52;;;;;;;55.55;17.02;;;5.00;99.90;;;;;;5093208;28;20047;-70
2022/01/13 07:51:18;;;;;;;64.15;17.23;;;5.00;99.90;;;;;;5092017;28;20373;-70
2022/01/13 07:53:44;;;;;;;40.03;16.13;;;5.00;99.90;;;;;;5092456;28;20476;-71
2022/01/13 07:56:10;;;;;;;50.47;15.30;;;5.00;99.90;;;;;;5074519;28;20044;-71
2022/01/13 07:58:37;;;;;;;95.30;20.67;;;5.10;99.90;;;;;;5058090;28;20185;-70
2022/01/13 08:01:04;;;;;;;54.00;17.33;;;5.10;99.90;;;;;;5073243;28;20044;-70
2022/01/13 08:03:29;;;;;;;48.28;15.07;;;5.10;99.90;;;;;;5074115;28;20044;-70
2022/01/13 08:05:58;;;;;;;63.53;17.05;;;5.10;99.90;;;;;;5073609;28;20177;-72
2022/01/13 08:08:23;;;;;;;87.18;18.75;;;5.10;99.90;;;;;;5057647;28;20051;-70
2022/01/13 08:10:49;;;;;;;71.90;18.02;;;5.10;99.90;;;;;;5074365;28;20135;-71
2022/01/13 08:13:15;;;;;;;55.97;16.48;;;5.10;99.90;;;;;;5071898;28;20051;-71
2022/01/13 08:15:40;;;;;;;56.20;16.60;;;5.20;99.90;;;;;;5091531;28;20468;-71
2022/01/13 08:20:50;;;;;;;78.18;17.35;;;5.20;99.90;;;;;;5085614;28;20124;-71
2022/01/13 08:23:16;;;;;;;44.55;13.80;;;5.20;99.90;;;;;;5086103;28;20190;-70
2022/01/13 08:25:42;;;;;;;51.72;15.80;;;5.20;99.90;;;;;;5091822;28;20453;-71
2022/01/13 08:28:07;;;;;;;53.28;14.68;;;5.20;99.90;;;;;;5091489;28;20109;-71
2022/01/13 08:30:33;;;;;;;84.47;17.52;;;5.20;99.90;;;;;;5091769;28;20046;-72
2022/01/13 08:32:59;;;;;;;55.00;15.13;;;5.20;99.90;;;;;;5074137;28;20047;-71
2022/01/13 08:35:25;;;;;;;61.72;16.60;;;5.20;99.90;;;;;;5073109;28;20036;-71
2022/01/13 08:37:50;;;;;;;65.45;14.70;;;5.20;99.90;;;;;;5091980;28;20050;-70
2022/01/13 08:40:16;;;;;;;51.33;15.60;;;5.30;99.90;;;;;;5073937;28;20050;-70
2022/01/13 08:42:42;;;;;;;56.55;16.33;;;5.30;99.90;;;;;;5073080;28;20044;-72
2022/01/13 08:45:11;;;;;;;58.80;16.25;;;5.30;99.90;;;;;;5089302;28;20128;-71
2022/01/13 08:47:37;;;;;;;56.13;16.75;;;5.40;99.90;;;;;;5091082;28;20083;-71
2022/01/13 08:50:06;;;;;;;69.68;17.30;;;5.30;99.90;;;;;;5070910;28;20062;-72
2022/01/13 08:52:33;;;;;;;77.18;17.85;;;5.40;99.90;;;;;;5091427;28;20058;-71
2022/01/13 08:55:00;;;;;;;58.40;14.63;;;5.30;99.90;;;;;;5072010;28;20135;-71
2022/01/13 08:57:25;;;;;;;54.20;15.68;;;5.30;99.90;;;;;;5072514;28;20135;-71
2022/01/13 08:59:51;;;;;;;49.92;15.93;;;5.30;99.90;;;;;;5072731;28;20081;-72
2022/01/13 09:02:17;;;;;;;48.67;15.38;;;5.40;99.90;;;;;;5069875;28;20048;-71
2022/01/13 09:04:42;;;;;;;59.53;16.27;;;5.40;99.90;;;;;;5073060;28;20454;-72
2022/01/13 09:07:08;;;;;;;53.05;15.43;;;5.40;99.90;;;;;;5073706;28;20088;-71
2022/01/13 09:09:35;;;;;;;80.25;16.73;;;5.40;99.90;;;;;;5091154;28;20086;-71
2022/01/13 09:12:01;;;;;;;63.92;15.85;;;5.40;99.90;;;;;;5072590;28;20054;-70
2022/01/13 09:14:28;;;;;;;43.20;15.27;;;5.40;99.90;;;;;;5072351;28;20060;-72
2022/01/13 09:16:54;;;;;;;64.47;16.58;;;5.40;99.90;;;;;;5091187;28;20044;-73
2022/01/13 09:19:20;;;;;;;60.30;15.55;;;5.40;99.90;;;;;;5091817;28;20397;-73
2022/01/13 09:21:47;;;;;;;50.67;15.13;;;5.50;99.90;;;;;;5091584;28;20064;-73
2022/01/13 09:24:16;;;;;;;70.88;17.15;;;5.50;99.90;;;;;;5072968;28;20480;-73
2022/01/13 09:26:42;;;;;;;64.43;15.70;;;5.50;99.90;;;;;;5091064;28;20573;-72
2022/01/13 09:29:09;;;;;;;50.25;15.82;;;5.40;99.90;;;;;;5073696;28;20420;-73
2022/01/13 09:31:39;;;;;;;53.40;14.35;;;5.50;99.90;;;;;;5091193;28;20089;-72
2022/01/13 09:34:07;;;;;;;82.03;17.55;;;5.50;99.90;;;;;;5073636;28;20495;-71
2022/01/13 09:36:33;;;;;;;45.95;15.35;;;5.50;99.90;;;;;;5091373;28;20495;-73
2022/01/13 09:39:01;;;;;;;69.68;17.27;;;5.50;99.90;;;;;;5090788;28;20062;-73
2022/01/13 09:41:30;;;;;;;65.70;16.25;;;5.60;99.90;;;;;;5073096;28;20514;-73
2022/01/13 09:43:57;;;;;;;84.25;17.90;;;5.60;99.90;;;;;;5091302;28;20040;-71
2022/01/13 09:46:26;;;;;;;48.88;15.80;;;5.60;99.90;;;;;;5072442;28;20056;-73
2022/01/13 09:48:52;;;;;;;62.00;16.70;;;5.60;99.90;;;;;;5091315;28;20083;-73
2022/01/13 09:51:18;;;;;;;63.42;16.85;;;5.60;99.90;;;;;;5090491;28;20511;-73
2022/01/13 09:53:46;;;;;;;76.25;17.95;;;5.60;99.90;;;;;;5072577;28;20415;-72
2022/01/13 09:56:12;;;;;;;73.65;17.70;;;5.70;99.90;;;;;;5072989;28;20032;-73
2022/01/13 09:58:38;;;;;;;62.10;16.40;;;5.70;99.90;;;;;;5090986;28;20510;-72
2022/01/13 10:01:03;;;;;;;71.18;17.08;;;5.60;99.90;;;;;;5091696;28;20036;-71
2022/01/13 10:03:30;;;;;;;52.15;16.23;;;5.70;99.90;;;;;;5073217;28;20113;-73
2022/01/13 10:06:00;;;;;;;70.35;18.08;;;5.70;99.90;;;;;;5090434;28;20532;-73
2022/01/13 10:08:44;;;;;;;47.40;16.08;;;5.70;99.90;;;;;;5090710;28;20038;-72
2022/01/13 10:11:29;;;;;;;61.65;17.02;;;5.80;99.90;;;;;;5075964;28;20083;-72
2022/01/13 10:17:07;;;;;;;61.83;16.63;;;5.90;99.90;;;;;;5072556;28;20048;-73
2022/01/13 10:19:38;;;;;;;42.80;14.15;;;5.90;99.90;;;;;;5073975;28;20067;-73
2022/01/13 10:22:16;;;;;;;47.42;15.65;;;6.00;99.90;;;;;;5057236;28;20048;-71
2022/01/13 10:24:44;;;;;;;54.65;16.25;;;6.00;99.90;;;;;;5079436;28;20169;-73
2022/01/13 10:27:18;;;;;;;50.25;15.90;;;6.10;99.90;;;;;;5074901;28;20054;-73
2022/01/13 10:29:52;;;;;;;42.33;15.13;;;6.10;99.90;;;;;;5094283;28;20123;-72
2022/01/13 10:32:31;;;;;;;48.47;15.30;;;6.10;99.90;;;;;;5076045;28;20117;-73
2022/01/13 10:35:03;;;;;;;56.38;15.65;;;6.20;99.90;;;;;;5076477;28;20522;-73
2022/01/13 10:37:34;;;;;;;54.27;16.60;;;6.20;99.90;;;;;;5094842;28;20047;-73
2022/01/13 10:40:06;;;;;;;46.72;16.35;;;6.20;99.90;;;;;;5076187;28;20293;-72
2022/01/13 10:43:06;;;;;;;61.60;15.80;;;6.10;99.90;;;;;;5074861;28;20071;-73
2022/01/13 10:45:39;;;;;;;52.80;16.00;;;6.20;99.90;;;;;;5093713;28;20611;-72
2022/01/13 10:48:08;;;;;;;47.47;15.75;;;6.20;99.90;;;;;;5075259;28;20048;-73
2022/01/13 10:50:56;;;;;;;54.25;15.85;;;6.20;99.90;;;;;;5094370;28;20067;-73
2022/01/13 10:53:27;;;;;;;69.13;17.05;;;6.20;99.90;;;;;;5092226;28;20052;-72
2022/01/13 10:56:05;;;;;;;74.80;19.00;;;6.20;99.90;;;;;;5094163;28;20441;-73
2022/01/13 10:58:35;;;;;;;45.88;16.25;;;6.20;99.90;;;;;;5075857;28;20047;-73
2022/01/13 11:01:01;;;;;;;56.05;16.05;;;6.20;99.90;;;;;;5073097;28;20040;-73
2022/01/13 11:03:30;;;;;;;51.72;16.85;;;6.20;99.90;;;;;;5065102;28;20393;-73
2022/01/13 11:05:58;;;;;;;44.47;16.73;;;6.20;99.90;;;;;;5094233;28;20051;-73
2022/01/13 11:08:38;;;;;;;52.28;17.35;;;6.20;99.90;;;;;;5091287;28;20119;-73
2022/01/13 11:11:04;;;;;;;50.30;17.02;;;6.20;99.90;;;;;;5073665;28;20172;-72
2022/01/13 11:13:38;;;;;;;56.72;17.67;;;6.30;99.90;;;;;;5092447;28;20054;-73
2022/01/13 11:16:04;;;;;;;54.42;16.45;;;6.30;99.90;;;;;;5073275;28;20051;-71
2022/01/13 11:18:33;;;;;;;44.13;15.63;;;6.30;99.90;;;;;;5073545;28;20044;-73
2022/01/13 11:21:01;;;;;;;55.00;17.77;;;6.30;99.90;;;;;;5073067;28;20519;-73
2022/01/13 11:23:27;;;;;;;50.50;17.08;;;6.30;99.90;;;;;;5076010;28;20055;-71
2022/01/13 11:25:56;;;;;;;50.13;17.42;;;6.30;99.90;;;;;;5074279;28;20126;-73
2022/01/13 11:28:22;;;;;;;48.08;17.10;;;6.30;99.90;;;;;;5074090;28;20059;-72
2022/01/13 11:30:51;;;;;;;77.75;19.60;;;6.40;99.90;;;;;;5070456;28;20495;-73
2022/01/13 11:33:22;;;;;;;50.13;17.63;;;6.40;99.90;;;;;;5075405;28;20074;-72
2022/01/13 11:35:55;;;;;;;62.50;18.15;;;6.40;99.90;;;;;;5074729;28;20484;-72
2022/01/13 11:38:22;;;;;;;64.05;18.80;;;6.40;99.90;;;;;;5081131;28;20054;-72
2022/01/13 11:40:51;;;;;;;49.47;17.65;;;6.40;99.90;;;;;;5091527;28;20082;-71
2022/01/13 11:43:35;;;;;;;53.78;17.20;;;6.40;99.90;;;;;;5074492;28;20043;-71
2022/01/13 11:46:13;;;;;;;53.63;16.83;;;6.40;99.90;;;;;;5058119;28;20496;-72
2022/01/13 11:49:01;;;;;;;60.83;17.38;;;6.40;99.90;;;;;;5055317;28;20140;-72
2022/01/13 11:51:44;;;;;;;80.97;19.65;;;6.40;99.90;;;;;;5074355;28;20051;-71
2022/01/13 11:54:10;;;;;;;59.65;18.23;;;6.40;99.90;;;;;;5072119;28;20051;-73
2022/01/13 11:56:36;;;;;;;62.30;18.98;;;6.50;99.90;;;;;;5087092;28;20080;-71
2022/01/13 11:59:10;;;;;;;55.30;17.17;;;6.40;99.90;;;;;;5073057;28;20124;-73
2022/01/13 12:01:36;;;;;;;48.22;16.75;;;6.50;99.90;;;;;;5091779;28;20044;-73
2022/01/13 12:04:05;;;;;;;66.78;17.63;;;6.50;99.90;;;;;;5062418;28;20056;-72
2022/01/13 12:06:44;;;;;;;60.05;19.92;;;6.50;99.90;;;;;;5075170;28;20428;-72
2022/01/13 12:09:32;;;;;;;52.10;18.58;;;6.50;99.90;;;;;;5092293;28;20492;-72
2022/01/13 12:11:59;;;;;;;39.28;17.58;;;6.50;99.90;;;;;;5072283;28;20044;-72
2022/01/13 12:14:24;;;;;;;55.22;19.20;;;6.40;99.90;;;;;;5074377;28;20492;-72
2022/01/13 12:17:09;;;;;;;69.63;19.45;;;6.50;99.90;;;;;;5074314;28;20092;-72
2022/01/13 12:19:43;;;;;;;52.75;19.27;;;6.50;99.90;;;;;;5074562;28;20044;-73
2022/01/13 12:22:18;;;;;;;59.88;20.23;;;6.50;99.90;;;;;;5075245;28;20083;-72
2022/01/13 12:24:45;;;;;;;51.15;18.98;;;6.50;99.90;;;;;;5073496;28;20082;-72
2022/01/13 12:27:12;;;;;;;59.78;19.38;;;6.50;99.90;;;;;;5074442;28;20036;-73
2022/01/13 12:30:09;;;;;;;43.40;19.02;;;6.60;99.90;;;;;;5073496;28;20055;-73
2022/01/13 12:32:37;;;;;;;49.25;19.65;;;6.50;99.90;;;;;;5073097;28;20519;-71
2022/01/13 12:35:09;;;;;;;57.20;21.13;;;6.50;99.90;;;;;;5073064;28;20489;-73
2022/01/13 12:37:39;;;;;;;59.05;20.17;;;6.50;99.90;;;;;;5072972;28;20048;-72
2022/01/13 12:40:15;;;;;;;79.65;22.25;;;6.50;99.90;;;;;;5073241;28;20044;-72
2022/01/13 12:42:52;;;;;;;68.43;22.20;;;6.60;99.90;;;;;;5073754;28;20048;-73
2022/01/13 12:45:33;;;;;;;76.20;23.55;;;6.60;99.90;;;;;;5073018;28;20081;-72
2022/01/13 12:48:08;;;;;;;63.20;21.17;;;6.60;99.90;;;;;;5072440;28;20489;-73
2022/01/13 12:50:40;;;;;;;51.42;20.50;;;6.70;99.90;;;;;;5069135;28;20127;-73
2022/01/13 12:53:18;;;;;;;55.03;20.95;;;6.60;99.90;;;;;;5067466;28;20127;-71
2022/01/13 12:56:06;;;;;;;62.03;22.52;;;6.70;99.90;;;;;;5053910;28;20045;-73
2022/01/13 12:58:37;;;;;;;58.15;23.65;;;6.70;99.90;;;;;;5071490;28;20090;-72
2022/01/13 13:01:24;;;;;;;66.03;23.73;;;6.70;99.90;;;;;;5070788;28;20043;-73
2022/01/13 13:04:02;;;;;;;65.22;25.65;;;6.70;99.90;;;;;;5056840;28;20047;-73
2022/01/13 13:06:30;;;;;;;56.00;24.90;;;6.70;99.90;;;;;;5072551;28;20552;-72